Time;durP1;ratioP1;P1;durP2;ratioP2;P2;SDS_P1;SDS_P2;PMS_P1;PMS_P2;Temp;Humidity;BMP_temperature;BMP_pressure;BME280_temperature;BME280_humidity;BME280_pressure;Samples;Min_cycle;Max_cycle;Signal;HPM_P1;HPM_P2
2022/04/26 03:37:57;;;;;;;19.80;13.22;;;;;;;8.19;84.07;99930.55;1592554;90;25650;-72
2022/04/26 03:40:23;;;;;;;17.12;12.98;;;;;;;8.19;84.12;99933.25;1592574;89;32413;-71
2022/04/26 03:42:49;;;;;;;19.45;13.40;;;;;;;8.18;84.15;99928.94;1592524;89;27559;-71
2022/04/26 03:45:15;;;;;;;17.92;13.45;;;;;;;8.20;84.20;99937.52;1592496;89;33100;-72
2022/04/26 03:47:41;;;;;;;17.85;13.72;;;;;;;8.18;84.12;99936.47;1592558;89;29718;-72
2022/04/26 03:50:07;;;;;;;18.90;12.70;;;;;;;8.20;84.11;99938.30;1592538;90;25679;-72
2022/04/26 03:52:33;;;;;;;17.07;12.47;;;;;;;8.19;84.04;99937.29;1592585;90;25586;-72
2022/04/26 03:55:03;;;;;;;19.95;12.45;;;;;;;8.18;84.16;99941.07;1592547;90;27444;-72
2022/04/26 03:57:29;;;;;;;15.88;12.80;;;;;;;8.18;84.25;99938.38;1592685;89;25429;-72
2022/04/26 03:59:55;;;;;;;15.95;11.83;;;;;;;8.20;84.34;99941.00;1592687;89;30141;-72
2022/04/26 04:02:22;;;;;;;16.87;12.25;;;;;;;8.23;84.38;99945.79;1591997;89;26328;-72
2022/04/26 04:04:49;;;;;;;15.80;11.60;;;;;;;8.24;84.34;99945.27;1590957;90;25448;-72
2022/04/26 04:07:15;;;;;;;17.75;11.35;;;;;;;8.28;84.50;99949.50;1590857;89;27341;-70
2022/04/26 04:09:41;;;;;;;14.68;10.85;;;;;;;8.28;84.42;99950.28;1590893;89;25778;-72
2022/04/26 04:12:09;;;;;;;13.08;9.73;;;;;;;8.32;84.50;99957.21;1590900;89;29590;-72
2022/04/26 04:14:35;;;;;;;14.25;10.18;;;;;;;8.33;84.50;99952.09;1590852;90;25713;-72
2022/04/26 04:17:01;;;;;;;11.85;9.15;;;;;;;8.35;84.38;99953.36;1590937;89;32936;-71
2022/04/26 04:19:29;;;;;;;11.57;9.18;;;;;;;8.36;84.26;99959.02;1590925;90;27446;-71
2022/04/26 04:21:55;;;;;;;12.30;9.58;;;;;;;8.37;84.07;99962.49;1590791;90;25432;-71
2022/04/26 04:24:21;;;;;;;12.00;9.75;;;;;;;8.39;84.19;99964.33;1590883;90;30168;-71
2022/04/26 04:26:48;;;;;;;11.05;9.05;;;;;;;8.40;84.09;99969.42;1590872;90;25743;-72
2022/04/26 04:29:14;;;;;;;11.93;8.70;;;;;;;8.37;83.89;99971.37;1590903;90;25513;-71
2022/04/26 04:31:41;;;;;;;11.05;9.05;;;;;;;8.36;83.97;99971.67;1590860;90;27409;-69
2022/04/26 04:34:07;;;;;;;10.90;8.45;;;;;;;8.36;84.07;99975.18;1590807;90;25437;-69
2022/04/26 04:36:33;;;;;;;13.85;9.13;;;;;;;8.37;84.12;99978.11;1590859;90;25612;-71
2022/04/26 04:38:59;;;;;;;10.78;9.55;;;;;;;8.38;84.19;99977.58;1590876;90;25610;-71
2022/04/26 04:41:26;;;;;;;11.97;9.35;;;;;;;8.40;84.41;99986.16;1590905;90;25521;-71
2022/04/26 04:43:52;;;;;;;10.18;9.00;;;;;;;8.42;84.66;99987.99;1590854;90;27940;-71
2022/04/26 04:46:18;;;;;;;10.80;9.03;;;;;;;8.48;84.73;99991.40;1590809;88;25708;-71
2022/04/26 04:48:44;;;;;;;9.80;8.75;;;;;;;8.49;84.82;99993.80;1590892;88;25494;-71
2022/04/26 04:51:10;;;;;;;9.53;8.03;;;;;;;8.52;84.74;99994.55;1590857;90;25595;-71
2022/04/26 04:53:37;;;;;;;9.20;8.15;;;;;;;8.54;84.64;99997.73;1590901;90;25462;-71
2022/04/26 04:56:06;;;;;;;10.18;8.23;;;;;;;8.54;84.59;99992.34;1590933;90;27885;-71
2022/04/26 04:58:32;;;;;;;9.55;7.83;;;;;;;8.55;84.43;99999.34;1590805;88;25500;-70
2022/04/26 05:00:58;;;;;;;10.30;7.80;;;;;;;8.55;84.31;100000.69;1590876;90;25596;-70
2022/04/26 05:03:24;;;;;;;9.03;7.45;;;;;;;8.55;84.37;100004.73;1591147;89;34899;-70
2022/04/26 05:05:50;;;;;;;11.12;8.40;;;;;;;8.55;84.32;100004.73;1644186;87;32749;-72
2022/04/26 05:08:16;;;;;;;10.82;8.53;;;;;;;8.54;84.29;100005.81;1644124;87;28157;-71
2022/04/26 05:10:42;;;;;;;11.08;8.88;;;;;;;8.54;84.29;100005.81;1647852;87;33523;-71
2022/04/26 05:13:08;;;;;;;12.88;9.40;;;;;;;8.55;84.41;100009.33;1649167;87;25645;-71
2022/04/26 05:15:38;;;;;;;12.70;9.68;;;;;;;8.57;84.51;100009.27;1649066;87;25632;-71
2022/04/26 05:18:04;;;;;;;12.47;9.25;;;;;;;8.59;84.50;100013.01;1649170;86;25472;-69
2022/04/26 05:20:30;;;;;;;12.23;9.85;;;;;;;8.58;84.28;100014.91;1649105;87;27911;-71
2022/04/26 05:25:41;;;;;;;14.78;9.80;;;;;;;8.58;84.32;100018.96;1649623;87;25439;-71
2022/04/26 05:28:07;;;;;;;13.85;9.35;;;;;;;8.60;84.38;100026.19;1649544;87;25697;-71
2022/04/26 05:30:33;;;;;;;17.67;11.05;;;;;;;8.62;84.42;100025.09;1650582;84;25428;-70
2022/04/26 05:33:01;;;;;;;15.13;10.80;;;;;;;8.64;84.42;100028.28;1654692;84;27058;-71
2022/04/26 05:35:27;;;;;;;13.53;10.25;;;;;;;8.65;84.37;100025.29;1649504;85;25730;-72
2022/04/26 05:37:53;;;;;;;13.40;9.30;;;;;;;8.65;84.35;100029.34;1650045;87;25747;-72
2022/04/26 05:40:20;;;;;;;12.63;8.93;;;;;;;8.67;84.45;100039.27;1650508;86;25695;-71
2022/04/26 05:42:46;;;;;;;11.90;8.78;;;;;;;8.67;84.55;100035.78;1650572;87;25614;-71
2022/04/26 05:45:12;;;;;;;11.88;8.80;;;;;;;8.69;84.58;100043.01;1650529;87;27352;-71
2022/04/26 05:47:43;;;;;;;11.73;8.83;;;;;;;8.70;84.80;100042.71;1650471;87;25701;-71
2022/04/26 05:50:11;;;;;;;11.10;9.43;;;;;;;8.73;85.03;100042.08;1650471;86;25656;-71
2022/04/26 05:52:37;;;;;;;12.82;9.23;;;;;;;8.78;85.03;100046.05;1650432;86;25605;-72
2022/04/26 05:55:07;;;;;;;11.03;8.93;;;;;;;8.83;85.04;100044.33;1650516;86;25411;-72
2022/04/26 05:57:42;;;;;;;13.58;10.40;;;;;;;8.84;85.07;100052.12;1650480;87;27396;-71
2022/04/26 06:00:12;;;;;;;12.53;10.32;;;;;;;8.90;85.20;100050.89;1650416;87;25558;-71
2022/04/26 06:02:39;;;;;;;13.40;10.35;;;;;;;8.93;84.98;100055.69;1649232;86;25417;-71
2022/04/26 06:05:06;;;;;;;14.43;10.00;;;;;;;8.96;84.91;100059.12;1641035;87;26250;-71
2022/04/26 06:07:32;;;;;;;14.25;10.93;;;;;;;8.98;84.74;100060.17;1641058;87;25451;-70
2022/04/26 06:09:59;;;;;;;14.43;10.82;;;;;;;9.01;84.69;100060.92;1641045;87;27329;-70
2022/04/26 06:12:28;;;;;;;14.23;11.35;;;;;;;9.00;84.66;100067.41;1621877;87;25675;-70
2022/04/26 06:14:57;;;;;;;14.80;11.25;;;;;;;9.03;84.55;100068.72;1641139;87;25631;-70
2022/04/26 06:17:24;;;;;;;16.37;11.50;;;;;;;9.05;84.35;100067.86;1640897;87;25612;-70
2022/04/26 06:19:51;;;;;;;17.85;12.85;;;;;;;9.02;83.88;100071.94;1641052;87;25587;-70
2022/04/26 06:22:18;;;;;;;19.73;13.15;;;;;;;8.97;83.70;100067.48;1641047;87;27401;-70
2022/04/26 06:24:44;;;;;;;25.62;17.07;;;;;;;8.96;83.89;100074.52;1640982;87;25726;-69
2022/04/26 06:27:11;;;;;;;22.00;17.05;;;;;;;8.93;83.90;100073.22;1641060;87;25592;-68
2022/04/26 06:29:37;;;;;;;21.77;15.65;;;;;;;8.91;83.89;100080.82;1641005;87;25668;-68
2022/04/26 06:32:06;;;;;;;24.75;16.80;;;;;;;8.89;83.72;100083.59;1641077;87;25653;-69
2022/04/26 06:34:32;;;;;;;23.20;15.83;;;;;;;8.83;83.66;100084.22;1640336;86;27404;-69
2022/04/26 06:36:58;;;;;;;25.32;16.90;;;;;;;8.78;83.80;100088.37;1640837;87;25759;-70
2022/04/26 06:39:24;;;;;;;26.27;18.15;;;;;;;8.75;83.81;100087.63;1641421;86;25671;-69
2022/04/26 06:41:50;;;;;;;27.32;18.10;;;;;;;8.70;83.67;100087.73;1630452;86;25701;-68
2022/04/26 06:44:17;;;;;;;28.32;18.98;;;;;;;8.66;83.93;100088.09;1627313;88;25434;-69
2022/04/26 06:47:05;;;;;;;25.72;17.25;;;;;;;8.62;84.00;100089.25;1638469;87;25719;-68
2022/04/26 06:49:31;;;;;;;28.35;19.30;;;;;;;8.56;84.04;100093.95;1638546;87;25508;-69
2022/04/26 06:51:57;;;;;;;22.45;16.35;;;;;;;8.57;84.26;100101.48;1638499;87;25460;-68
2022/04/26 06:54:25;;;;;;;26.77;18.62;;;;;;;8.48;84.18;100101.39;1638531;87;35281;-68
2022/04/26 06:56:52;;;;;;;24.70;16.80;;;;;;;8.48;84.18;100101.39;1638571;87;25513;-68
2022/04/26 06:59:18;;;;;;;28.87;18.45;;;;;;;8.48;84.64;100101.39;1638570;87;27989;-68
2022/04/26 07:01:45;;;;;;;25.48;17.57;;;;;;;8.51;84.97;100106.19;1638345;87;25907;-68
2022/04/26 07:04:12;;;;;;;26.15;17.07;;;;;;;8.52;85.01;100105.63;1638344;87;25664;-69
2022/04/26 07:06:39;;;;;;;24.25;17.32;;;;;;;8.52;84.95;100109.67;1638260;87;25730;-68
2022/04/26 07:09:05;;;;;;;24.75;16.65;;;;;;;8.50;84.74;100112.66;1638452;87;25512;-68
2022/04/26 07:11:32;;;;;;;25.45;16.90;;;;;;;8.50;84.95;100120.75;1638345;87;28248;-68
2022/04/26 07:13:58;;;;;;;28.47;17.05;;;;;;;8.50;84.86;100124.80;1638335;87;25540;-68
2022/04/26 07:16:25;;;;;;;26.42;18.25;;;;;;;8.50;85.18;100128.05;1638345;87;25654;-68
2022/04/26 07:18:51;;;;;;;30.72;19.42;;;;;;;8.51;85.04;100135.02;1649741;87;25702;-68
2022/04/26 07:21:18;;;;;;;24.25;16.70;;;;;;;8.51;85.23;100134.49;1686010;84;25436;-69
2022/04/26 07:23:44;;;;;;;24.02;15.98;;;;;;;8.50;84.99;100133.44;1686018;85;27379;-69
2022/04/26 07:26:10;;;;;;;24.43;17.52;;;;;;;8.48;84.95;100130.22;1685897;84;25417;-68
2022/04/26 07:28:36;;;;;;;25.08;18.02;;;;;;;8.49;84.90;100142.61;1685931;84;29680;-69
2022/04/26 07:31:05;;;;;;;28.62;19.15;;;;;;;8.47;84.93;100142.91;1685903;85;25610;-68
2022/04/26 07:36:16;;;;;;;26.73;18.50;;;;;;;8.49;85.28;100145.30;1686168;85;26672;-68
2022/04/26 07:38:42;;;;;;;23.87;17.40;;;;;;;8.51;85.39;100156.05;1685923;85;25603;-68
2022/04/26 07:41:09;;;;;;;23.55;17.05;;;;;;;8.52;85.15;100156.84;1686084;84;29720;-68
2022/04/26 07:43:35;;;;;;;24.40;17.73;;;;;;;8.52;85.48;100157.64;1624076;88;25618;-68
2022/04/26 07:46:02;;;;;;;27.10;18.57;;;;;;;8.58;85.78;100163.20;1682331;84;25463;-67
2022/04/26 07:48:28;;;;;;;29.20;20.10;;;;;;;8.67;86.19;100162.51;1679503;85;26688;-68
2022/04/26 07:50:55;;;;;;;29.12;18.87;;;;;;;8.72;86.04;100159.71;1674184;85;25759;-68
2022/04/26 07:53:21;;;;;;;28.65;19.17;;;;;;;8.82;86.53;100160.04;1674269;85;25474;-67
2022/04/26 07:55:47;;;;;;;31.07;20.12;;;;;;;8.97;86.97;100159.20;1674260;85;25797;-68
2022/04/26 07:58:13;;;;;;;28.52;19.95;;;;;;;9.12;87.17;100161.32;1674234;85;25425;-67
2022/04/26 08:00:39;;;;;;;25.97;19.07;;;;;;;9.25;86.94;100168.59;1674239;85;26970;-68
2022/04/26 08:03:06;;;;;;;27.67;19.05;;;;;;;9.33;86.26;100169.77;1674173;85;33545;-68
2022/04/26 08:05:34;;;;;;;26.20;17.82;;;;;;;9.33;85.40;100173.29;1674278;85;25631;-67
2022/04/26 08:08:02;;;;;;;27.05;18.77;;;;;;;9.36;85.25;100171.87;1674220;85;25647;-68
2022/04/26 08:10:28;;;;;;;25.30;17.95;;;;;;;9.43;85.15;100177.67;1674341;85;25581;-67
2022/04/26 08:12:54;;;;;;;22.80;17.65;;;;;;;9.49;85.39;100181.05;1674180;85;27371;-67
2022/04/26 08:15:20;;;;;;;23.20;17.67;;;;;;;9.59;85.76;100186.22;1674248;85;25464;-68
2022/04/26 08:17:49;;;;;;;21.82;16.80;;;;;;;9.60;84.54;100186.45;1674298;85;25572;-68
2022/04/26 08:20:16;;;;;;;23.10;15.88;;;;;;;9.52;83.41;100185.28;1674506;85;25617;-68
2022/04/26 08:22:43;;;;;;;20.02;15.38;;;;;;;9.50;83.75;100190.73;1672819;85;26117;-67
2022/04/26 08:27:54;;;;;;;22.17;15.35;;;;;;;9.49;83.87;100195.34;1673889;85;25603;-67
2022/04/26 08:30:20;;;;;;;31.87;20.72;;;;;;;9.49;83.97;100203.44;1673676;85;25421;-68
2022/04/26 08:32:48;;;;;;;36.80;25.88;;;;;;;9.52;83.93;100205.53;1673837;85;25785;-67
2022/04/26 08:35:20;;;;;;;49.40;32.00;;;;;;;9.54;84.10;100203.33;1673446;85;25834;-68
2022/04/26 08:37:46;;;;;;;23.12;15.30;;;;;;;9.63;84.46;100204.75;1673437;85;27407;-68
2022/04/26 08:40:13;;;;;;;20.17;13.95;;;;;;;9.68;84.45;100195.74;1673802;85;27330;-68
2022/04/26 08:42:46;;;;;;;18.27;13.53;;;;;;;9.72;84.12;100199.42;1673901;85;25580;-68
2022/04/26 08:45:18;;;;;;;20.37;14.20;;;;;;;9.76;83.67;100207.73;1673463;85;25641;-69
2022/04/26 08:53:21;;;;;;;18.17;12.95;;;;;;;9.82;83.04;100218.09;1670762;85;25665;-67
2022/04/26 08:55:55;;;;;;;;;;;;;;;9.82;83.07;100216.73;1673414;85;25501;-67
2022/04/26 08:58:25;;;;;;;18.48;13.08;;;;;;;9.89;83.10;100217.67;1670523;85;25803;-67
2022/04/26 09:01:10;;;;;;;;;;;;;;;9.99;83.79;100224.75;1673301;85;25409;-68
2022/04/26 09:03:54;;;;;;;14.60;11.25;;;;;;;10.02;82.55;100219.52;1670860;85;27716;-69
2022/04/26 09:06:17;;;;;;;17.55;12.68;;;;;;;10.04;82.59;100224.63;1658682;85;25755;-67
2022/04/26 09:08:44;;;;;;;17.52;12.58;;;;;;;10.14;82.89;100231.14;1670782;85;25584;-68
2022/04/26 09:11:33;;;;;;;17.45;13.30;;;;;;;10.30;83.62;100232.94;1670695;85;27732;-68
2022/04/26 09:13:55;;;;;;;18.37;13.18;;;;;;;10.42;82.63;100233.19;1670029;85;25747;-68
2022/04/26 09:16:23;;;;;;;17.48;12.98;;;;;;;10.47;81.92;100239.00;1670833;85;27446;-68
2022/04/26 09:18:53;;;;;;;18.67;13.98;;;;;;;10.54;81.94;100239.38;1670729;85;25739;-68
2022/04/26 09:21:20;;;;;;;18.45;13.48;;;;;;;10.64;82.09;100236.95;1670628;85;25452;-68
2022/04/26 09:23:47;;;;;;;20.43;14.85;;;;;;;10.79;81.93;100241.17;1670162;85;26446;-68
2022/04/26 09:26:19;;;;;;;23.40;16.27;;;;;;;10.86;81.13;100238.80;1670410;85;25750;-67
2022/04/26 09:28:48;;;;;;;20.90;14.53;;;;;;;10.88;80.32;100240.67;1670367;85;27349;-68
2022/04/26 09:31:22;;;;;;;20.00;16.12;;;;;;;10.87;79.79;100252.59;1669850;85;25739;-68
2022/04/26 09:33:53;;;;;;;23.55;17.70;;;;;;;10.84;79.58;100251.32;1670419;85;25764;-68
2022/04/26 09:36:24;;;;;;;22.65;17.05;;;;;;;10.80;79.41;100247.63;1670539;85;26225;-67
2022/04/26 09:38:57;;;;;;;25.32;17.92;;;;;;;10.80;79.09;100256.30;1670835;85;25813;-69
2022/04/26 09:41:27;;;;;;;23.32;17.75;;;;;;;10.82;79.35;100257.58;1670769;85;27538;-69
2022/04/26 09:44:23;;;;;;;23.60;16.82;;;;;;;10.86;79.16;100252.90;1670668;85;25702;-67
2022/04/26 09:46:52;;;;;;;23.60;16.40;;;;;;;10.95;79.35;100252.40;1670717;85;25550;-67
2022/04/26 09:49:22;;;;;;;22.37;16.80;;;;;;;11.08;79.20;100254.74;1670900;85;25742;-67
2022/04/26 09:52:01;;;;;;;24.37;17.70;;;;;;;11.12;78.05;100256.52;1670719;85;25625;-66
2022/04/26 09:54:29;;;;;;;24.40;17.60;;;;;;;11.13;78.29;100256.74;1670903;85;32665;-67
2022/04/26 09:56:56;;;;;;;23.50;17.32;;;;;;;11.14;77.73;100254.29;1670664;85;25438;-67
2022/04/26 09:59:42;;;;;;;23.25;17.17;;;;;;;11.12;77.36;100257.87;1670518;85;25704;-67
2022/04/26 10:02:12;;;;;;;24.80;17.42;;;;;;;11.11;77.21;100260.33;1670696;85;25747;-67
2022/04/26 10:04:46;;;;;;;20.62;16.12;;;;;;;11.14;77.44;100257.56;1670569;85;25540;-67
2022/04/26 10:07:17;;;;;;;22.32;15.83;;;;;;;11.19;77.44;100260.91;1670765;85;27550;-67
2022/04/26 10:09:46;;;;;;;23.10;16.45;;;;;;;11.24;77.00;100259.98;1670642;85;25711;-67
2022/04/26 10:12:15;;;;;;;24.50;16.50;;;;;;;11.27;76.42;100267.48;1670626;85;25709;-68
2022/04/26 10:14:43;;;;;;;20.40;15.68;;;;;;;11.25;76.23;100267.54;1670785;85;26160;-67
2022/04/26 10:17:10;;;;;;;23.40;16.57;;;;;;;11.27;76.69;100266.66;1670765;85;25451;-67
2022/04/26 10:19:44;;;;;;;19.82;15.72;;;;;;;11.33;76.78;100265.42;1670471;85;27292;-67
2022/04/26 10:22:14;;;;;;;20.68;15.68;;;;;;;11.38;76.44;100270.13;1670660;85;25716;-67
2022/04/26 10:24:42;;;;;;;20.17;14.83;;;;;;;11.42;76.12;100271.64;1682143;85;25631;-67
2022/04/26 10:27:25;;;;;;;;;;;;;;;11.49;76.06;100269.83;1684770;85;25633;-67
2022/04/26 10:29:52;;;;;;;19.37;13.98;;;;;;;11.64;76.23;100269.95;1682402;85;25577;-68
2022/04/26 10:32:38;;;;;;;21.07;15.58;;;;;;;11.72;75.66;100270.52;1682532;85;27500;-66
2022/04/26 10:35:29;;;;;;;17.60;13.58;;;;;;;11.85;75.83;100264.16;1682054;85;25709;-68
2022/04/26 10:38:14;;;;;;;18.95;14.30;;;;;;;12.00;75.29;100269.67;1682645;85;25443;-68
2022/04/26 10:41:08;;;;;;;19.52;13.68;;;;;;;12.06;74.52;100275.19;1682434;85;26460;-68
2022/04/26 10:43:34;;;;;;;19.87;13.65;;;;;;;12.12;74.09;100276.64;1682253;85;25910;-67
2022/04/26 10:46:13;;;;;;;17.42;13.48;;;;;;;12.17;73.96;100274.87;1682481;85;27437;-67
2022/04/26 10:48:40;;;;;;;16.20;12.93;;;;;;;12.20;73.67;100277.73;1683016;85;25461;-68
2022/04/26 10:51:37;;;;;;;17.40;11.83;;;;;;;12.31;73.86;100274.16;1682828;84;25739;-68
2022/04/26 10:54:04;;;;;;;15.20;11.85;;;;;;;12.43;73.26;100277.54;1682952;84;25735;-67
2022/04/26 10:56:32;;;;;;;19.57;12.98;;;;;;;12.51;72.87;100268.06;1682888;85;25617;-69
2022/04/26 10:58:58;;;;;;;17.12;13.72;;;;;;;12.68;73.13;100267.76;1683010;85;27376;-69
2022/04/26 11:01:28;;;;;;;17.23;13.30;;;;;;;12.84;72.49;100270.20;1682948;85;25734;-68
2022/04/26 11:03:56;;;;;;;12.25;10.85;;;;;;;13.03;72.59;100270.38;1682927;85;25705;-68
2022/04/26 11:06:39;;;;;;;14.18;10.95;;;;;;;13.22;71.80;100276.75;1682961;84;25793;-69
2022/04/26 11:09:14;;;;;;;13.38;10.55;;;;;;;13.33;71.04;100277.20;1683251;85;25479;-70
2022/04/26 11:11:52;;;;;;;14.20;10.48;;;;;;;13.41;70.65;100274.43;1682879;84;27500;-69
2022/04/26 11:14:20;;;;;;;14.78;10.58;;;;;;;13.51;69.74;100275.20;1681996;85;25450;-68
2022/04/26 11:17:05;;;;;;;15.15;9.98;;;;;;;13.56;69.29;100278.52;1683113;85;25485;-69
2022/04/26 11:19:33;;;;;;;14.18;9.50;;;;;;;13.60;69.03;100276.74;1682885;84;25686;-68
2022/04/26 11:22:07;;;;;;;11.95;8.40;;;;;;;13.80;69.52;100279.80;1683290;84;26302;-68
2022/04/26 11:30:10;;;;;;;10.65;8.10;;;;;;;14.06;66.90;100278.23;1683221;85;25381;-68
2022/04/26 11:32:42;;;;;;;12.00;6.95;;;;;;;14.15;66.61;100280.91;1683233;85;25756;-69
2022/04/26 11:35:08;;;;;;;8.35;6.75;;;;;;;14.18;66.18;100285.11;1682889;85;25798;-69
2022/04/26 11:37:53;;;;;;;7.45;6.47;;;;;;;14.27;66.14;100278.22;1683095;85;27286;-69
2022/04/26 11:40:47;;;;;;;9.18;6.62;;;;;;;14.33;65.51;100282.31;1683097;85;25615;-69
2022/04/26 11:43:22;;;;;;;11.03;7.87;;;;;;;14.40;65.34;100276.33;1660826;86;25734;-71
2022/04/26 11:45:51;;;;;;;13.98;7.20;;;;;;;14.56;65.48;100281.95;1626595;88;25640;-70
2022/04/26 11:48:27;;;;;;;13.75;8.20;;;;;;;14.64;64.63;100281.66;1604792;87;25606;-72
2022/04/26 11:50:55;;;;;;;10.28;7.95;;;;;;;14.52;64.03;100276.39;1620594;88;27530;-71
2022/04/26 11:53:25;;;;;;;12.07;8.13;;;;;;;14.51;64.07;100283.53;1594490;89;25893;-71
2022/04/26 11:56:05;;;;;;;10.05;8.38;;;;;;;14.52;63.41;100287.28;1620269;88;25681;-70
2022/04/26 11:58:37;;;;;;;9.93;6.75;;;;;;;14.39;62.95;100290.51;1620908;88;25756;-70
2022/04/26 12:01:10;;;;;;;10.65;6.60;;;;;;;14.41;63.69;100288.81;1621113;88;25810;-71
2022/04/26 12:03:48;;;;;;;17.67;11.00;;;;;;;14.49;63.67;100290.66;1620651;88;27528;-70
2022/04/26 12:06:20;;;;;;;12.28;8.30;;;;;;;14.60;63.73;100286.98;1594022;90;25744;-70
2022/04/26 12:08:51;;;;;;;10.43;7.45;;;;;;;14.69;62.82;100290.42;1599587;89;25510;-71
2022/04/26 12:11:22;;;;;;;8.60;6.30;;;;;;;14.65;61.58;100285.41;1587414;89;25810;-71
2022/04/26 12:14:11;;;;;;;8.25;5.47;;;;;;;14.67;61.26;100290.52;1621078;88;25716;-71
2022/04/26 12:16:43;;;;;;;8.20;5.80;;;;;;;14.72;61.30;100293.02;1594184;90;27424;-72
2022/04/26 12:19:11;;;;;;;6.90;5.87;;;;;;;14.72;60.29;100290.30;1604563;89;25767;-71
2022/04/26 12:21:56;;;;;;;10.05;6.30;;;;;;;14.64;60.45;100294.72;1609126;89;25776;-70
2022/04/26 12:24:29;;;;;;;9.25;6.67;;;;;;;14.64;60.73;100291.17;1629902;88;25739;-72
2022/04/26 12:27:04;;;;;;;9.78;6.70;;;;;;;14.69;60.83;100286.34;1635146;87;25665;-71
2022/04/26 12:29:39;;;;;;;10.65;7.05;;;;;;;14.77;60.75;100286.00;1630087;87;27405;-72
2022/04/26 12:32:14;;;;;;;8.58;6.22;;;;;;;14.69;60.29;100284.16;1630218;88;25705;-71
2022/04/26 12:34:52;;;;;;;9.05;7.28;;;;;;;14.64;59.74;100289.27;1628474;88;25731;-72
2022/04/26 12:37:22;;;;;;;10.40;7.67;;;;;;;14.48;59.71;100290.42;1630399;87;26242;-71
2022/04/26 12:39:58;;;;;;;9.53;6.97;;;;;;;14.47;60.17;100285.31;1630193;88;25660;-71
2022/04/26 12:42:36;;;;;;;7.22;6.40;;;;;;;14.51;60.09;100287.61;1635005;87;27417;-71
2022/04/26 12:45:11;;;;;;;;;;;;;;;14.49;59.59;100287.13;1632229;88;25665;-71
2022/04/26 12:50:43;;;;;;;8.43;5.90;;;;;;;14.60;60.13;100284.25;1648362;87;25697;-71
2022/04/26 12:53:08;;;;;;;10.55;7.05;;;;;;;14.68;59.92;100287.45;1662575;86;25489;-71
2022/04/26 12:55:38;;;;;;;13.53;8.80;;;;;;;14.75;59.88;100286.91;1648250;87;27933;-71
2022/04/26 12:58:08;;;;;;;13.05;8.38;;;;;;;14.80;58.90;100279.09;1665225;86;25681;-71
2022/04/26 13:00:44;;;;;;;8.93;7.60;;;;;;;14.67;58.50;100284.49;1648456;87;25654;-72
2022/04/26 13:03:17;;;;;;;10.58;6.92;;;;;;;14.54;58.68;100284.20;1664918;86;25616;-71
2022/04/26 13:06:11;;;;;;;8.63;7.00;;;;;;;14.52;58.52;100281.84;1648326;87;25460;-71
2022/04/26 13:08:41;;;;;;;7.30;6.45;;;;;;;14.56;58.90;100280.02;1665408;86;27462;-70
2022/04/26 13:11:08;;;;;;;9.18;6.47;;;;;;;14.63;59.16;100276.00;1647833;86;25823;-70
2022/04/26 13:13:42;;;;;;;8.95;6.12;;;;;;;14.68;58.81;100275.78;1665398;86;25689;-70
2022/04/26 13:16:07;;;;;;;10.85;6.53;;;;;;;14.61;58.54;100278.23;1665390;85;26255;-71
2022/04/26 13:18:34;;;;;;;9.20;6.10;;;;;;;14.56;58.43;100269.70;1665241;86;25487;-71
2022/04/26 13:21:02;;;;;;;8.80;5.58;;;;;;;14.52;58.38;100282.38;1665311;86;27544;-70
2022/04/26 13:23:30;;;;;;;8.85;5.80;;;;;;;14.46;58.22;100275.00;1665282;86;25682;-70
2022/04/26 13:25:57;;;;;;;6.90;4.45;;;;;;;14.41;58.15;100279.30;1665031;86;25660;-71
2022/04/26 13:28:25;;;;;;;5.53;4.95;;;;;;;14.35;57.90;100275.17;1665354;86;25617;-71
2022/04/26 13:30:51;;;;;;;6.47;5.00;;;;;;;14.21;57.30;100279.55;1665355;86;25638;-71
2022/04/26 13:33:17;;;;;;;5.92;5.05;;;;;;;14.11;57.65;100278.02;1665101;86;28125;-70
2022/04/26 13:35:43;;;;;;;7.10;5.12;;;;;;;14.08;57.97;100280.08;1665262;86;25794;-73
2022/04/26 13:38:11;;;;;;;7.72;5.55;;;;;;;14.08;58.36;100276.54;1665317;86;25583;-70
2022/04/26 13:40:39;;;;;;;7.67;5.28;;;;;;;14.15;58.76;100279.54;1665098;86;25828;-71
2022/04/26 13:43:07;;;;;;;8.65;5.55;;;;;;;14.19;58.14;100281.81;1665233;86;25701;-70
2022/04/26 13:45:35;;;;;;;6.62;5.40;;;;;;;14.17;57.98;100282.72;1665317;86;27422;-70
2022/04/26 13:48:06;;;;;;;10.82;5.53;;;;;;;14.09;57.93;100279.50;1664810;86;25645;-71
2022/04/26 13:50:33;;;;;;;6.10;4.87;;;;;;;14.09;58.43;100280.86;1665094;86;25624;-70
2022/04/26 13:52:59;;;;;;;7.78;5.00;;;;;;;14.13;58.40;100277.69;1665229;86;34993;-70
2022/04/26 13:55:26;;;;;;;6.80;5.42;;;;;;;14.15;58.59;100279.54;1665123;86;25479;-71
2022/04/26 13:57:54;;;;;;;6.22;4.85;;;;;;;14.23;58.72;100282.72;1665275;86;27383;-71
2022/04/26 14:00:22;;;;;;;6.95;4.70;;;;;;;14.33;58.53;100283.67;1665182;86;25503;-71
2022/04/26 14:02:49;;;;;;;8.30;5.47;;;;;;;14.41;58.41;100290.18;1665146;86;25584;-71
2022/04/26 14:05:17;;;;;;;6.50;4.97;;;;;;;14.44;57.89;100286.80;1665227;86;26486;-71
2022/04/26 14:07:46;;;;;;;6.12;4.60;;;;;;;14.46;58.01;100287.25;1665382;86;25645;-71
2022/04/26 14:10:13;;;;;;;9.65;5.30;;;;;;;14.54;57.64;100288.27;1665035;85;27567;-71
2022/04/26 14:12:39;;;;;;;6.40;4.95;;;;;;;14.61;57.63;100291.30;1665269;86;25686;-70
2022/04/26 14:23:28;;;;;;;5.87;4.65;;;;;;;14.79;56.91;100284.30;1665154;86;29547;-69
2022/04/26 14:25:54;;;;;;;7.53;4.90;;;;;;;14.76;56.53;100298.01;1664946;84;25693;-69
2022/04/26 14:28:21;;;;;;;8.88;5.45;;;;;;;14.75;56.62;100291.78;1665444;86;26309;-71
2022/04/26 14:30:47;;;;;;;7.17;5.50;;;;;;;14.74;56.13;100286.12;1654487;86;25569;-70
2022/04/26 14:33:13;;;;;;;12.18;6.25;;;;;;;14.73;56.33;100289.18;1638420;87;25590;-70
2022/04/26 14:35:40;;;;;;;11.18;7.47;;;;;;;14.77;56.74;100286.58;1638697;87;27526;-71
2022/04/26 14:38:07;;;;;;;6.67;5.05;;;;;;;14.80;56.40;100289.41;1638576;86;25681;-69
2022/04/26 14:40:34;;;;;;;6.55;5.30;;;;;;;14.85;56.21;100281.60;1638360;87;25677;-71
2022/04/26 14:43:00;;;;;;;7.90;5.90;;;;;;;14.84;56.11;100280.78;1638533;87;25730;-70
2022/04/26 14:45:25;;;;;;;7.90;5.28;;;;;;;14.81;55.88;100288.27;1638122;87;25664;-71
2022/04/26 14:47:54;;;;;;;7.95;5.58;;;;;;;14.73;55.64;100294.05;1630294;87;27509;-70
2022/04/26 14:50:20;;;;;;;8.75;6.25;;;;;;;14.68;55.95;100292.11;1611833;88;25781;-70
2022/04/26 14:52:46;;;;;;;8.65;5.70;;;;;;;14.66;55.92;100291.63;1612252;88;25654;-72
2022/04/26 14:55:12;;;;;;;8.38;5.42;;;;;;;14.61;55.83;100295.92;1612112;88;25602;-70
2022/04/26 14:57:39;;;;;;;7.95;5.37;;;;;;;14.59;56.19;100286.73;1612565;89;25745;-70
2022/04/26 15:00:08;;;;;;;8.40;5.30;;;;;;;14.61;55.69;100287.77;1612349;88;27445;-69
2022/04/26 15:02:38;;;;;;;7.33;5.75;;;;;;;14.56;55.77;100289.55;1612236;89;25699;-71
2022/04/26 15:05:09;;;;;;;7.35;5.22;;;;;;;14.56;55.68;100287.40;1612341;89;25411;-71
2022/04/26 15:10:24;;;;;;;7.35;5.85;;;;;;;14.54;55.92;100289.64;1612243;89;25691;-70
2022/04/26 15:18:21;;;;;;;8.18;5.55;;;;;;;14.45;55.53;100296.53;1612631;89;25652;-70
2022/04/26 15:20:52;;;;;;;6.55;5.83;;;;;;;14.41;55.78;100298.34;1612194;87;25769;-69
2022/04/26 15:23:20;;;;;;;7.37;5.42;;;;;;;14.36;55.80;100299.33;1610079;89;25858;-71
2022/04/26 15:25:55;;;;;;;6.35;5.28;;;;;;;14.34;55.92;100298.09;1608759;89;27384;-72
2022/04/26 15:28:23;;;;;;;6.08;5.22;;;;;;;14.32;55.80;100292.16;1611301;87;25598;-70
2022/04/26 15:30:53;;;;;;;8.03;5.70;;;;;;;14.29;55.89;100301.02;1608733;89;25763;-71
2022/04/26 15:33:21;;;;;;;7.00;5.25;;;;;;;14.26;56.09;100298.95;1608414;88;25867;-71
2022/04/26 15:35:47;;;;;;;8.15;6.15;;;;;;;14.19;55.83;100298.13;1611173;89;25635;-71
2022/04/26 15:38:14;;;;;;;7.92;5.37;;;;;;;14.15;56.13;100303.45;1608828;89;27479;-70
2022/04/26 15:40:43;;;;;;;11.45;5.45;;;;;;;14.11;55.83;100294.91;1597525;88;25837;-71
2022/04/26 15:43:09;;;;;;;6.97;5.10;;;;;;;14.07;55.96;100302.95;1615215;88;25481;-70
2022/04/26 15:45:36;;;;;;;8.58;6.20;;;;;;;14.01;56.09;100309.16;1615247;88;26361;-69
2022/04/26 15:48:05;;;;;;;7.78;6.08;;;;;;;13.96;55.94;100302.56;1614024;85;25692;-69